createdAt,value
2022-11-03T05:24:16.818Z,93.60
2022-11-03T05:36:36.643Z,93.30
2022-11-03T05:39:31.326Z,93.20
2022-11-03T05:42:00.380Z,93.20
2022-11-03T05:44:36.965Z,93.20
2022-11-03T05:47:13.781Z,93.20
2022-11-03T05:52:25.596Z,92.80
2022-11-03T05:54:55.443Z,93.00
2022-11-03T05:57:22.714Z,93.10
2022-11-03T05:59:52.374Z,93.00
2022-11-03T06:02:39.713Z,93.10
2022-11-03T06:08:18.725Z,93.00
2022-11-03T06:13:48.845Z,93.10
2022-11-03T06:16:32.619Z,93.10
2022-11-03T06:19:01.869Z,93.10
2022-11-03T06:21:30.480Z,93.30
2022-11-03T06:23:59.553Z,93.40
2022-11-03T06:26:28.633Z,93.10
2022-11-03T06:28:56.267Z,93.30
2022-11-03T06:31:29.923Z,93.50
2022-11-03T06:34:01.593Z,93.70
2022-11-03T06:36:36.966Z,93.40
2022-11-03T06:39:22.319Z,93.40
2022-11-03T06:41:50.056Z,93.60
2022-11-03T06:44:24.933Z,93.70
2022-11-03T06:46:56.805Z,94.10
2022-11-03T06:49:39.377Z,94.00
2022-11-03T06:52:35.381Z,94.00
2022-11-03T06:55:12.321Z,93.90
2022-11-03T06:57:46.430Z,94.00
2022-11-03T07:01:11.718Z,94.60
2022-11-03T07:03:46.735Z,94.80
2022-11-03T07:06:24.381Z,95.40
2022-11-03T07:09:07.147Z,95.70
2022-11-03T07:11:49.866Z,95.80
2022-11-03T07:14:23.018Z,95.80
2022-11-03T07:16:56.043Z,95.70
2022-11-03T07:19:34.419Z,95.60
2022-11-03T07:22:06.364Z,95.60
2022-11-03T07:24:39.218Z,95.70
2022-11-03T07:27:22.239Z,96.10
2022-11-03T07:29:59.391Z,96.30
2022-11-03T07:32:31.252Z,96.30
2022-11-03T07:35:17.093Z,96.00
2022-11-03T07:37:50.589Z,96.10
2022-11-03T07:40:34.939Z,96.10
2022-11-03T07:43:18.510Z,95.90
2022-11-03T07:45:52.387Z,96.10
2022-11-03T07:48:25.151Z,96.30
2022-11-03T07:50:58.743Z,96.50
2022-11-03T07:53:45.860Z,96.60
2022-11-03T07:56:20.902Z,96.70
2022-11-03T07:58:54.338Z,96.50
2022-11-03T08:01:26.291Z,96.40
2022-11-03T08:04:01.117Z,96.40
2022-11-03T08:06:28.491Z,96.50
2022-11-03T08:08:55.940Z,96.40
2022-11-03T08:11:27.785Z,96.20
2022-11-03T08:13:59.691Z,96.30
2022-11-03T08:16:28.886Z,96.20
2022-11-03T08:19:04.017Z,96.10
2022-11-03T08:21:38.145Z,96.00
2022-11-03T08:24:08.257Z,95.80
2022-11-03T08:26:35.840Z,95.60
2022-11-03T08:29:03.391Z,95.10
2022-11-03T08:31:30.723Z,95.20
2022-11-03T08:33:58.138Z,94.90
2022-11-03T08:36:25.512Z,95.00
2022-11-03T08:38:52.944Z,95.00
2022-11-03T08:41:20.253Z,94.80
2022-11-03T08:43:47.551Z,94.80
2022-11-03T08:46:17.960Z,94.20
2022-11-03T08:48:46.558Z,93.80
2022-11-03T08:51:15.584Z,93.40
2022-11-03T08:53:47.067Z,92.70
2022-11-03T08:56:26.189Z,92.30
2022-11-03T08:59:14.229Z,92.20
2022-11-03T09:05:48.636Z,91.00
2022-11-03T09:12:06.789Z,90.10
2022-11-03T09:14:35.575Z,90.10
2022-11-03T09:20:32.077Z,89.30
2022-11-03T09:23:13.255Z,87.80
2022-11-03T09:25:40.617Z,86.00
2022-11-03T09:28:08.411Z,85.10
2022-11-03T09:30:35.923Z,84.90
2022-11-03T09:33:03.845Z,85.10
2022-11-03T09:35:31.242Z,84.60
2022-11-03T09:37:58.545Z,84.30
2022-11-03T09:40:26.315Z,84.60
2022-11-03T09:42:54.013Z,84.70
2022-11-03T09:45:23.423Z,84.40
2022-11-03T09:47:50.834Z,84.90
2022-11-03T09:50:20.124Z,84.40
2022-11-03T09:52:51.480Z,84.50
2022-11-03T09:55:25.349Z,84.60
2022-11-03T09:58:00.259Z,84.40
2022-11-03T10:00:28.336Z,84.60
2022-11-03T10:02:56.513Z,84.40
2022-11-03T10:05:28.593Z,85.00
2022-11-03T10:08:03.120Z,85.10
2022-11-03T10:10:31.712Z,85.70
2022-11-03T10:13:00.956Z,85.40
2022-11-03T10:15:28.570Z,86.00
2022-11-03T10:17:56.756Z,84.60
2022-11-03T10:20:26.446Z,85.40
2022-11-03T10:22:55.074Z,85.30
2022-11-03T10:25:40.353Z,85.40
2022-11-03T10:41:59.568Z,86.80
2022-11-03T10:44:28.855Z,86.60
2022-11-03T10:47:01.060Z,86.60
2022-11-03T10:49:33.371Z,87.20
2022-11-03T10:52:22.563Z,86.20
2022-11-03T10:54:51.589Z,86.80
2022-11-03T10:57:19.523Z,86.50
2022-11-03T10:59:49.035Z,87.20
2022-11-03T11:02:22.126Z,87.20
2022-11-03T11:04:56.338Z,87.20
2022-11-03T11:07:34.946Z,87.40
2022-11-03T11:10:29.815Z,87.60
2022-11-03T11:13:18.867Z,88.10
2022-11-03T11:15:47.387Z,87.00
2022-11-03T11:18:40.514Z,87.20
2022-11-03T11:21:19.691Z,87.30
2022-11-03T11:23:48.263Z,88.20
2022-11-03T11:26:24.920Z,87.40
2022-11-03T11:29:11.215Z,88.30
2022-11-03T11:31:42.704Z,88.10
2022-11-03T11:34:10.137Z,88.20
2022-11-03T11:36:40.626Z,88.40
2022-11-03T11:39:27.761Z,88.50
2022-11-03T11:42:12.291Z,89.20
2022-11-03T11:44:39.851Z,88.60
2022-11-03T11:47:26.167Z,87.80
2022-11-03T11:50:11.562Z,88.70
2022-11-03T11:52:42.745Z,88.90
2022-11-03T11:55:20.640Z,89.00
2022-11-03T11:57:48.064Z,89.10
2022-11-03T12:00:23.461Z,88.40
2022-11-03T12:02:52.892Z,88.50
2022-11-03T12:05:32.305Z,88.70
2022-11-03T12:08:00.194Z,88.90
2022-11-03T12:10:47.281Z,88.50
2022-11-03T12:13:51.518Z,88.30
2022-11-03T12:16:32.007Z,88.90
2022-11-03T12:19:39.043Z,88.80
2022-11-03T12:22:09.472Z,88.30
2022-11-03T12:24:51.592Z,88.20
2022-11-03T12:27:40.970Z,88.50
2022-11-03T12:30:19.186Z,88.40
2022-11-03T12:32:47.368Z,88.50
2022-11-03T12:35:15.066Z,87.50
2022-11-03T12:37:43.698Z,88.10
2022-11-03T12:40:13.593Z,87.60
2022-11-03T12:42:44.694Z,87.40
2022-11-03T12:49:47.579Z,88.00
2022-11-03T12:52:49.545Z,88.40
2022-11-03T12:55:44.609Z,88.00
2022-11-03T12:58:18.868Z,87.30
2022-11-03T13:00:50.052Z,88.00
2022-11-03T13:03:22.382Z,88.70
2022-11-03T13:11:45.975Z,88.40
2022-11-03T13:14:16.657Z,88.50
2022-11-03T13:16:45.839Z,87.90
2022-11-03T13:19:13.431Z,88.10
2022-11-03T13:21:40.943Z,87.80
2022-11-03T13:24:08.322Z,88.40
2022-11-03T13:26:35.614Z,88.00
2022-11-03T13:29:03.546Z,89.20
2022-11-03T13:31:31.419Z,88.80
2022-11-03T13:33:58.852Z,88.60
2022-11-03T13:36:26.632Z,88.00
2022-11-03T13:38:54.716Z,88.70
2022-11-03T13:41:22.278Z,88.60
2022-11-03T13:43:49.721Z,88.30
2022-11-03T14:04:49.675Z,88.80
2022-11-03T14:07:17.043Z,88.30
2022-11-03T14:09:44.360Z,89.10
2022-11-03T14:12:41.774Z,88.30
2022-11-03T14:15:12.006Z,88.50
2022-11-03T14:17:40.330Z,88.70
2022-11-03T14:20:12.372Z,88.40
2022-11-03T14:22:41.298Z,88.20
2022-11-03T14:25:09.675Z,88.10
2022-11-03T14:27:38.430Z,88.00
2022-11-03T14:30:07.929Z,88.20
2022-11-03T14:32:35.779Z,89.00
2022-11-03T14:41:42.588Z,89.30
2022-11-03T14:44:09.933Z,89.30
2022-11-03T14:46:37.555Z,89.80
2022-11-03T14:49:05.689Z,90.00
2022-11-03T14:51:33.897Z,90.20
2022-11-03T14:54:01.183Z,90.20
2022-11-03T14:56:28.460Z,90.60
2022-11-03T14:58:55.850Z,91.00
2022-11-03T15:01:23.359Z,90.80
2022-11-03T15:03:51.199Z,90.80
2022-11-03T15:06:18.731Z,90.70
2022-11-03T15:08:54.993Z,90.50
2022-11-03T15:11:25.550Z,90.60
2022-11-03T15:13:56.627Z,90.80
2022-11-03T15:16:49.513Z,90.70
2022-11-03T15:26:25.816Z,90.90
2022-11-03T15:28:53.645Z,91.00
2022-11-03T15:31:23.715Z,91.10
2022-11-03T15:33:51.196Z,91.00
2022-11-03T15:36:18.625Z,91.20
2022-11-03T15:38:50.647Z,91.40
2022-11-03T15:41:19.325Z,91.20
2022-11-03T15:43:48.547Z,91.20
2022-11-03T15:46:20.485Z,91.20
2022-11-03T15:55:09.812Z,91.20
2022-11-03T15:57:54.410Z,91.20
2022-11-03T16:00:43.245Z,91.10
2022-11-03T16:03:12.776Z,91.10
2022-11-03T16:05:41.623Z,91.30
2022-11-03T16:08:09.644Z,91.30
2022-11-03T16:10:37.039Z,91.40
2022-11-03T16:13:04.672Z,91.20
2022-11-03T16:15:32.056Z,91.10
2022-11-03T16:40:23.797Z,92.20
2022-11-03T16:42:51.312Z,92.50
2022-11-03T16:45:22.094Z,92.40
2022-11-03T16:47:50.764Z,92.50
2022-11-03T16:50:19.905Z,92.70
2022-11-03T16:52:49.140Z,92.60
2022-11-03T16:55:20.406Z,93.00
2022-11-03T16:57:47.777Z,92.90
2022-11-03T17:00:19.686Z,93.10
2022-11-03T17:02:48.586Z,93.10
2022-11-03T17:05:18.839Z,93.20
2022-11-03T17:07:53.231Z,93.40
2022-11-03T17:10:22.568Z,93.60
2022-11-03T17:12:50.880Z,93.80
2022-11-03T17:15:18.449Z,93.60
2022-11-03T17:17:45.764Z,93.60
2022-11-03T17:20:13.653Z,93.80
2022-11-03T17:22:40.990Z,93.80
2022-11-03T17:25:11.696Z,93.90
2022-11-03T17:27:49.343Z,93.90
2022-11-03T17:30:25.954Z,93.80
2022-11-03T17:33:06.025Z,93.90
2022-11-03T17:35:39.637Z,94.00
2022-11-03T17:38:16.154Z,94.10
2022-11-03T17:40:47.660Z,94.10
2022-11-03T17:43:22.429Z,94.00
2022-11-03T17:45:49.927Z,94.20
2022-11-03T17:48:17.318Z,94.30
2022-11-03T17:50:50.317Z,94.40
2022-11-03T17:53:32.041Z,94.50
2022-11-03T17:56:29.609Z,94.60
2022-11-03T17:58:49.604Z,94.70
2022-11-03T18:01:22.068Z,94.60
2022-11-03T18:03:51.990Z,94.70
2022-11-03T18:06:20.689Z,94.80
2022-11-03T18:08:51.805Z,94.80
2022-11-03T18:11:48.680Z,95.00
2022-11-03T18:14:19.805Z,94.90
2022-11-03T18:16:48.795Z,94.90
2022-11-03T18:19:18.807Z,95.20
2022-11-03T18:21:47.413Z,95.10
2022-11-03T18:24:19.703Z,95.30
2022-11-03T18:27:15.108Z,95.40
2022-11-03T18:29:44.190Z,95.20
2022-11-03T18:32:17.348Z,95.40
2022-11-03T18:34:46.908Z,95.30
2022-11-03T18:37:15.372Z,95.30
2022-11-03T18:39:43.017Z,95.30
2022-11-03T18:42:13.885Z,95.40
2022-11-03T18:44:43.141Z,95.50
2022-11-03T18:47:35.810Z,95.40
2022-11-03T18:50:04.433Z,95.30
2022-11-03T18:52:41.047Z,95.50
2022-11-03T18:55:13.154Z,95.60
2022-11-03T18:57:41.510Z,95.70
2022-11-03T19:00:21.576Z,96.00
2022-11-03T19:02:51.128Z,96.10
2022-11-03T19:05:24.465Z,96.30
2022-11-03T19:07:56.834Z,96.30
2022-11-03T19:10:24.675Z,96.50
2022-11-03T19:12:52.624Z,96.40
2022-11-03T19:15:22.754Z,96.60
2022-11-03T19:17:54.785Z,96.60
2022-11-03T19:20:23.712Z,96.60
2022-11-03T19:22:52.867Z,96.70
2022-11-03T19:25:20.593Z,96.80
2022-11-03T19:27:49.180Z,96.80
2022-11-03T19:30:18.585Z,97.10
2022-11-03T19:32:49.249Z,96.80
2022-11-03T19:35:33.630Z,96.80
2022-11-03T19:38:10.639Z,96.90
2022-11-03T19:40:59.882Z,97.00
2022-11-03T19:43:33.297Z,96.80
2022-11-03T19:46:06.647Z,96.90
2022-11-03T19:48:34.863Z,96.80
2022-11-03T19:51:04.956Z,96.90
2022-11-03T19:53:33.153Z,96.90
2022-11-03T19:56:01.296Z,96.90
2022-11-03T19:58:30.102Z,97.10
2022-11-03T20:00:57.736Z,97.10
2022-11-03T20:03:25.627Z,97.00
2022-11-03T20:05:57.801Z,97.10
2022-11-03T20:08:41.514Z,97.20
2022-11-03T20:11:20.377Z,97.30
2022-11-03T20:13:48.707Z,97.20
2022-11-03T20:16:17.569Z,97.30
2022-11-03T20:18:45.074Z,97.20
2022-11-03T20:21:16.869Z,97.10
2022-11-03T20:23:45.895Z,97.20
2022-11-03T20:26:19.376Z,97.20
2022-11-03T20:28:48.039Z,97.30
2022-11-03T20:31:17.100Z,97.30
2022-11-03T20:33:44.718Z,97.40
2022-11-03T20:36:18.031Z,97.40
2022-11-03T20:38:52.417Z,97.50
2022-11-03T20:41:19.875Z,97.40
2022-11-03T20:43:55.150Z,97.40
2022-11-03T20:46:27.012Z,97.40
2022-11-03T20:48:55.440Z,97.40
2022-11-03T20:51:26.070Z,97.40
2022-11-03T20:53:54.352Z,97.50
2022-11-03T20:56:24.957Z,97.40
2022-11-03T20:58:53.064Z,97.60
2022-11-03T21:01:26.536Z,97.50
2022-11-03T21:03:59.451Z,97.50
2022-11-03T21:06:30.252Z,97.60
2022-11-03T21:08:57.930Z,97.60
2022-11-03T21:11:27.938Z,97.70
2022-11-03T21:14:01.105Z,97.70
2022-11-03T21:16:48.489Z,97.70
2022-11-03T21:19:39.640Z,97.70
2022-11-03T21:22:54.132Z,97.70
2022-11-03T21:25:25.394Z,97.80
2022-11-03T21:27:54.723Z,97.90
2022-11-03T21:30:23.030Z,97.80
2022-11-03T21:32:50.475Z,98.10
2022-11-03T21:35:20.522Z,98.10
2022-11-03T21:41:32.164Z,98.10
2022-11-03T21:44:15.004Z,98.30
2022-11-03T21:46:43.461Z,98.20
2022-11-03T21:49:29.629Z,98.20
2022-11-03T21:51:57.475Z,98.20
2022-11-03T21:54:25.508Z,98.40
2022-11-03T21:56:54.759Z,98.70
2022-11-03T21:59:24.788Z,98.70
2022-11-03T22:01:55.900Z,98.70
2022-11-03T22:04:23.681Z,99.10
2022-11-03T22:06:54.351Z,99.00
2022-11-03T22:09:22.596Z,99.20
2022-11-03T22:11:50.439Z,99.40
2022-11-03T22:14:18.412Z,99.30
2022-11-03T22:16:46.611Z,99.50
2022-11-03T22:19:36.561Z,99.30
2022-11-03T22:22:30.911Z,99.50
2022-11-03T22:25:17.544Z,99.50
2022-11-03T22:27:45.195Z,99.60
2022-11-03T22:30:31.888Z,99.50
2022-11-03T22:32:59.390Z,99.70
2022-11-03T22:50:58.084Z,99.40
2022-11-03T22:53:44.294Z,99.40
2022-11-03T22:56:12.048Z,99.50
2022-11-03T22:58:39.986Z,99.20
2022-11-03T23:01:12.579Z,99.30
2022-11-03T23:03:41.665Z,99.40
2022-11-03T23:06:11.524Z,99.50
2022-11-03T23:08:43.199Z,99.60
2022-11-03T23:11:25.574Z,99.50
2022-11-03T23:13:55.609Z,99.40
2022-11-03T23:16:25.828Z,99.40
